Burlington Piers

CWWB · 安大略, 加拿大

使用的METAR站距离机场39 NM。
罗盘
风向 的 风向 220°
风: 6 kt, 2 beaufort

添加一条跑道以查看侧风和逆风信息。

添置 跑道
0 ft 1.000 2.000 3.000 4.000 5.000
没有云
METAR KIAG 121253Z 22006KT 10SM CLR 24/20 A3015 RMK AO2 SLP206 T02390200

METAR Burlington Piers - CWWB

Burlington Piers是,加拿大中的未知。 该机场位于纬度43,30000和经度-79,80000。 本场的ICAO机场代码为CWWB。 机场在Cleveland FIR中。

该航空气象观测是针对Niagara Falls International Airport在2024年7月12日 08:53, 当地时间进行的。

机场观察

风向为220°,速度为6 kt。

可见度为10 mi。

有没有云。 没有观察到天花板。

温度和风寒是24 °C。 露点为20 °C,相对湿度为78%。 海平面上的气压为30,15 inHg (QNH)。

白天

今天,太阳从05:50升起,在20:59降落。 这适用于Burlington Piers,世界夏令时可能有所不同。 当地时间与世界标准时间之间的时差为-4 小时。 夏令时目前正在进行中。

公司介绍

我们没有关于这个机场的公司信息。

体会

到Vliegles.nl去找飞行课程,跳伞和其他飞行体验。 浏览页面,了解Burlington Piers附近所有可用的活动。 你也可以使用搜索功能来寻找你所在地附近的特定飞行课程、跳伞或其他飞行体验。

乌云

- CLR 没有云

温度 & 天气

温度 23,9 °C
露点 20,0 °C
相对湿度 78%
Kp-index 0 (0-9)

评论

AO2自动气象站,可确定降水类型
SLP206海平面压力为30,14 inHg (30,14 inHg)
T02390200温度为23,9 °C (75,0 °F),露点为20,0 °C (68,0 °F)

白天

日出
05:48
中午
13:21
日落
20:54 (11:39)

小工具

你想在你的网站上有一个关于Burlington Piers的当前航空天气(METAR)的小部件吗?

显示HTML代码
报告变更